createdAt,value
2023-04-02T00:01:18.490Z,18.87
2023-04-02T00:09:20.426Z,18.87
2023-04-02T00:11:48.375Z,18.88
2023-04-02T00:14:17.651Z,18.88
2023-04-02T00:16:43.728Z,18.88
2023-04-02T00:19:17.734Z,18.87
2023-04-02T00:21:44.930Z,18.86
2023-04-02T00:24:15.275Z,18.88
2023-04-02T00:26:46.334Z,18.87
2023-04-02T00:29:14.967Z,18.88
2023-04-02T00:31:43.608Z,18.87
2023-04-02T00:34:17.538Z,18.87
2023-04-02T00:36:43.380Z,18.88
2023-04-02T00:39:19.040Z,18.88
2023-04-02T00:41:46.130Z,18.87
2023-04-02T00:44:13.904Z,18.88
2023-04-02T00:46:46.027Z,18.88
2023-04-02T00:49:20.721Z,18.86
2023-04-02T00:51:52.567Z,18.87
2023-04-02T00:54:20.598Z,18.86
2023-04-02T00:56:48.329Z,18.87
2023-04-02T00:59:24.743Z,18.88
2023-04-02T01:01:53.455Z,18.87
2023-04-02T01:04:35.655Z,18.87
2023-04-02T01:07:04.324Z,18.87
2023-04-02T01:09:44.566Z,18.87
2023-04-02T01:12:25.810Z,18.88
2023-04-02T01:15:17.010Z,18.86
2023-04-02T01:18:01.287Z,18.88
2023-04-02T01:20:49.640Z,18.88
2023-04-02T01:23:24.218Z,18.87
2023-04-02T01:26:13.027Z,18.87
2023-04-02T01:29:00.692Z,18.86
2023-04-02T01:31:27.723Z,18.86
2023-04-02T01:33:54.053Z,18.86
2023-04-02T01:36:33.722Z,18.87
2023-04-02T01:39:14.454Z,18.86
2023-04-02T01:41:47.938Z,18.87
2023-04-02T01:44:20.316Z,18.87
2023-04-02T01:46:47.818Z,18.87
2023-04-02T01:49:15.495Z,18.87
2023-04-02T01:51:43.611Z,18.87
2023-04-02T01:54:09.737Z,18.87
2023-04-02T01:56:35.880Z,18.86
2023-04-02T01:59:04.929Z,18.87
2023-04-02T02:01:35.281Z,18.87
2023-04-02T02:04:01.339Z,18.87
2023-04-02T02:06:27.126Z,18.87
2023-04-02T02:08:59.048Z,18.86
2023-04-02T02:11:27.945Z,18.87
2023-04-02T02:13:57.368Z,18.86
2023-04-02T02:16:23.480Z,18.86
2023-04-02T02:18:52.109Z,18.87
2023-04-02T02:21:30.633Z,18.87
2023-04-02T02:23:56.491Z,18.86
2023-04-02T02:26:23.484Z,18.87
2023-04-02T02:28:50.687Z,18.87
2023-04-02T02:31:21.891Z,18.87
2023-04-02T02:33:50.865Z,18.87
2023-04-02T02:36:32.654Z,18.87
2023-04-02T02:39:19.611Z,18.87
2023-04-02T02:41:49.489Z,18.87
2023-04-02T02:44:19.966Z,18.86
2023-04-02T02:47:09.859Z,18.87
2023-04-02T02:49:39.122Z,18.86
2023-04-02T02:52:15.362Z,18.87
2023-04-02T02:54:44.407Z,18.86
2023-04-02T02:57:15.286Z,18.87
2023-04-02T02:59:41.615Z,18.87
2023-04-02T03:02:07.480Z,18.87
2023-04-02T03:04:36.330Z,18.86
2023-04-02T03:07:03.059Z,18.87
2023-04-02T03:12:27.072Z,18.90
2023-04-02T03:15:00.548Z,18.90
2023-04-02T03:17:48.831Z,18.88
2023-04-02T03:20:21.632Z,18.88
2023-04-02T03:22:55.353Z,18.87
2023-04-02T03:25:26.785Z,18.86
2023-04-02T03:27:57.347Z,18.87
2023-04-02T03:30:44.714Z,18.88
2023-04-02T03:33:39.199Z,18.86
2023-04-02T03:36:29.631Z,18.86
2023-04-02T03:41:47.943Z,18.86
2023-04-02T03:44:20.891Z,18.87
2023-04-02T03:46:56.424Z,18.86
2023-04-02T03:49:27.988Z,18.86
2023-04-02T03:52:00.230Z,18.86
2023-04-02T03:54:26.982Z,18.86
2023-04-02T03:56:52.956Z,18.86
2023-04-02T03:59:31.070Z,18.86
2023-04-02T04:02:00.619Z,18.85
2023-04-02T04:04:28.132Z,18.85
2023-04-02T04:06:55.447Z,18.86
2023-04-02T04:09:28.907Z,18.87
2023-04-02T04:12:22.971Z,18.85
2023-04-02T04:15:00.368Z,18.85
2023-04-02T04:17:50.479Z,18.86
2023-04-02T04:20:21.212Z,18.86
2023-04-02T04:22:49.087Z,18.85
2023-04-02T04:25:22.927Z,18.85
2023-04-02T04:27:57.512Z,18.85
2023-04-02T04:30:45.207Z,18.86
2023-04-02T04:33:21.636Z,18.86
2023-04-02T04:35:57.073Z,18.87
2023-04-02T04:38:32.159Z,18.86
2023-04-02T04:41:04.463Z,18.87
2023-04-02T04:43:43.301Z,18.86
2023-04-02T04:46:13.990Z,18.87
2023-04-02T04:48:52.381Z,18.86
2023-04-02T04:51:20.325Z,18.86
2023-04-02T04:53:47.549Z,18.85
2023-04-02T04:56:19.646Z,18.86
2023-04-02T05:01:51.556Z,18.85
2023-04-02T05:04:24.560Z,18.85
2023-04-02T05:07:02.551Z,18.85
2023-04-02T05:09:33.354Z,18.85
2023-04-02T05:12:38.807Z,18.86
2023-04-02T05:15:15.446Z,18.85
2023-04-02T05:17:46.899Z,18.85
2023-04-02T05:20:19.715Z,18.85
2023-04-02T05:22:53.394Z,18.85
2023-04-02T05:25:22.648Z,18.86
2023-04-02T05:27:59.497Z,18.86
2023-04-02T05:33:24.881Z,18.89
2023-04-02T05:35:56.521Z,18.89
2023-04-02T05:38:25.489Z,18.87
2023-04-02T05:40:58.933Z,18.87
2023-04-02T05:43:25.798Z,18.87
2023-04-02T05:45:54.037Z,18.86
2023-04-02T05:48:24.619Z,18.86
2023-04-02T05:50:52.502Z,18.86
2023-04-02T05:53:24.820Z,18.86
2023-04-02T05:55:54.284Z,18.85
2023-04-02T05:58:35.466Z,18.86
2023-04-02T06:01:14.628Z,18.85
2023-04-02T06:03:47.119Z,18.85
2023-04-02T06:06:22.479Z,18.85
2023-04-02T06:08:54.862Z,18.86
2023-04-02T06:11:26.330Z,18.86
2023-04-02T06:13:52.084Z,18.85
2023-04-02T06:16:19.947Z,18.85
2023-04-02T06:18:45.691Z,18.86
2023-04-02T06:21:13.786Z,18.86
2023-04-02T06:23:43.487Z,18.86
2023-04-02T06:26:20.775Z,18.85
2023-04-02T06:28:51.361Z,18.85
2023-04-02T06:31:27.112Z,18.85
2023-04-02T06:33:54.245Z,18.85
2023-04-02T06:36:20.405Z,18.85
2023-04-02T06:38:47.487Z,18.85
2023-04-02T06:41:22.277Z,18.85
2023-04-02T06:43:53.468Z,18.85
2023-04-02T06:46:31.151Z,18.84
2023-04-02T06:49:08.764Z,18.85
2023-04-02T06:51:36.146Z,18.85
2023-04-02T06:54:01.809Z,18.84
2023-04-02T06:56:40.084Z,18.85
2023-04-02T06:59:06.640Z,18.84
2023-04-02T07:01:36.503Z,18.84
2023-04-02T07:04:02.208Z,18.84
2023-04-02T07:06:27.862Z,18.85
2023-04-02T07:08:53.514Z,18.84
2023-04-02T07:11:21.472Z,18.85
2023-04-02T07:13:48.050Z,18.85
2023-04-02T07:16:15.850Z,18.84
2023-04-02T07:18:42.243Z,18.85
2023-04-02T07:21:07.912Z,18.84
2023-04-02T07:23:33.558Z,18.84
2023-04-02T07:25:59.402Z,18.86
2023-04-02T07:28:25.229Z,18.83
2023-04-02T07:30:51.425Z,18.85
2023-04-02T07:33:19.712Z,18.84
2023-04-02T07:35:45.848Z,18.85
2023-04-02T07:38:11.657Z,18.85
2023-04-02T07:40:37.436Z,18.84
2023-04-02T07:43:04.037Z,18.85
2023-04-02T07:45:29.757Z,18.85
2023-04-02T07:47:55.424Z,18.85
2023-04-02T07:50:21.797Z,18.84
2023-04-02T07:52:47.475Z,18.84
2023-04-02T07:55:14.707Z,18.84
2023-04-02T07:57:48.480Z,18.85
2023-04-02T08:00:14.894Z,18.84
2023-04-02T08:02:41.635Z,18.85
2023-04-02T08:05:08.244Z,18.84
2023-04-02T08:07:34.742Z,18.83
2023-04-02T08:10:01.018Z,18.84
2023-04-02T08:12:26.665Z,18.84
2023-04-02T08:14:52.316Z,18.84
2023-04-02T08:17:17.981Z,18.84
2023-04-02T08:19:54.218Z,18.84
2023-04-02T08:22:20.555Z,18.83
2023-04-02T08:24:46.200Z,18.84
2023-04-02T08:27:14.145Z,18.84
2023-04-02T08:29:39.789Z,18.85
2023-04-02T08:32:06.677Z,18.84
2023-04-02T08:34:32.330Z,18.84
2023-04-02T08:36:58.083Z,18.85
2023-04-02T08:39:25.386Z,18.84
2023-04-02T08:42:03.278Z,18.83
2023-04-02T08:44:38.995Z,18.83
2023-04-02T08:47:06.308Z,18.83
2023-04-02T08:49:38.388Z,18.83
2023-04-02T08:52:04.391Z,18.84
2023-04-02T08:54:32.762Z,18.84
2023-04-02T08:57:03.704Z,18.83
2023-04-02T08:59:44.781Z,18.83
2023-04-02T09:04:45.711Z,18.85
2023-04-02T09:07:13.643Z,18.87
2023-04-02T09:09:39.614Z,18.87
2023-04-02T09:12:10.713Z,18.85
2023-04-02T09:14:43.575Z,18.84
2023-04-02T09:17:17.390Z,18.84
2023-04-02T09:19:49.662Z,18.83
2023-04-02T09:22:31.921Z,18.84
2023-04-02T09:24:59.644Z,18.83
2023-04-02T09:27:29.803Z,18.83
2023-04-02T09:30:03.368Z,18.84
2023-04-02T09:32:46.432Z,18.83
2023-04-02T09:35:26.207Z,18.83
2023-04-02T09:38:17.456Z,18.84
2023-04-02T09:43:31.389Z,18.83
2023-04-02T09:46:03.516Z,18.84
2023-04-02T09:48:35.984Z,18.84
2023-04-02T09:51:11.644Z,18.83
2023-04-02T09:53:41.870Z,18.83
2023-04-02T09:56:20.862Z,18.84
2023-04-02T09:59:01.294Z,18.84
2023-04-02T10:01:29.968Z,18.83
2023-04-02T10:03:56.070Z,18.83
2023-04-02T10:06:21.822Z,18.84
2023-04-02T10:08:47.667Z,18.83
2023-04-02T10:11:19.120Z,18.83
2023-04-02T10:13:53.793Z,18.84
2023-04-02T10:16:26.957Z,18.84
2023-04-02T10:18:57.410Z,18.84
2023-04-02T10:21:26.574Z,18.84
2023-04-02T10:23:53.482Z,18.84
2023-04-02T10:29:48.934Z,18.83
2023-04-02T10:32:20.767Z,18.84
2023-04-02T10:35:07.947Z,18.83
2023-04-02T10:37:57.419Z,18.83
2023-04-02T10:40:34.836Z,18.83
2023-04-02T10:46:09.228Z,18.82
2023-04-02T10:48:44.347Z,18.83
2023-04-02T10:53:53.373Z,18.86
2023-04-02T10:56:20.738Z,18.87
2023-04-02T10:58:58.361Z,18.85
2023-04-02T11:01:28.435Z,18.83
2023-04-02T11:03:59.241Z,18.83
2023-04-02T11:06:29.629Z,18.83
2023-04-02T11:08:59.559Z,18.84
2023-04-02T11:11:42.330Z,18.83
2023-04-02T11:14:27.343Z,18.83
2023-04-02T11:16:55.769Z,18.83
2023-04-02T11:19:22.486Z,18.83
2023-04-02T11:21:58.605Z,18.83
2023-04-02T11:24:45.930Z,18.83
2023-04-02T11:27:15.594Z,18.81
2023-04-02T11:30:01.924Z,18.82
2023-04-02T11:32:31.680Z,18.83
2023-04-02T11:35:06.324Z,18.83
2023-04-02T11:37:43.821Z,18.83
2023-04-02T11:42:47.176Z,18.86
2023-04-02T11:45:28.668Z,18.86
2023-04-02T11:48:24.159Z,18.84
2023-04-02T11:50:49.984Z,18.83
2023-04-02T11:56:00.703Z,18.83
2023-04-02T11:58:49.554Z,18.83
2023-04-02T12:01:44.389Z,18.83
2023-04-02T12:04:36.106Z,18.83
2023-04-02T12:07:19.521Z,18.83
2023-04-02T12:09:49.120Z,18.83
2023-04-02T12:12:26.242Z,18.82
2023-04-02T12:14:54.687Z,18.83
2023-04-02T12:17:37.001Z,18.82
2023-04-02T12:22:50.102Z,18.82
2023-04-02T12:25:29.171Z,18.82
2023-04-02T12:30:46.309Z,18.80
2023-04-02T12:35:57.103Z,18.83
2023-04-02T12:38:28.080Z,18.83
2023-04-02T12:41:03.810Z,18.83
2023-04-02T12:43:31.693Z,18.83
2023-04-02T12:45:59.914Z,18.83
2023-04-02T12:48:26.725Z,18.83
2023-04-02T12:50:52.578Z,18.84
2023-04-02T12:53:38.822Z,18.82
2023-04-02T12:56:05.160Z,18.83
2023-04-02T12:58:54.809Z,18.82
2023-04-02T13:01:23.022Z,18.81
2023-04-02T13:04:11.725Z,18.83
2023-04-02T13:06:38.904Z,18.84
2023-04-02T13:09:06.857Z,18.82
2023-04-02T13:11:36.471Z,18.82
2023-04-02T13:14:03.679Z,18.82
2023-04-02T13:16:36.399Z,18.82
2023-04-02T13:19:21.416Z,18.83
2023-04-02T13:21:47.055Z,18.83
2023-04-02T13:24:17.669Z,18.83
2023-04-02T13:26:43.467Z,18.83
2023-04-02T13:29:25.900Z,18.83
2023-04-02T13:31:53.546Z,18.82
2023-04-02T13:34:19.626Z,18.82
2023-04-02T13:36:45.698Z,18.82
2023-04-02T13:39:11.340Z,18.81
2023-04-02T13:41:42.720Z,18.82
2023-04-02T13:44:22.432Z,18.83
2023-04-02T13:46:48.278Z,18.82
2023-04-02T13:49:13.937Z,18.82
2023-04-02T13:51:43.804Z,18.83
2023-04-02T13:54:20.512Z,18.82
2023-04-02T13:56:46.524Z,18.82
2023-04-02T13:59:12.739Z,18.83
2023-04-02T14:01:39.795Z,18.83
2023-04-02T14:04:05.820Z,18.83
2023-04-02T14:07:10.457Z,18.82
2023-04-02T14:10:07.259Z,18.82
2023-04-02T14:12:40.753Z,18.83
2023-04-02T14:15:44.966Z,18.83
2023-04-02T14:21:36.160Z,18.83
2023-04-02T14:24:19.950Z,18.83
2023-04-02T14:26:54.606Z,18.83
2023-04-02T14:29:29.331Z,18.83
2023-04-02T14:32:04.098Z,18.82
2023-04-02T14:34:55.776Z,18.83
2023-04-02T14:37:33.124Z,18.82
2023-04-02T14:40:12.378Z,18.82
2023-04-02T14:42:43.723Z,18.83
2023-04-02T14:45:35.265Z,18.83
2023-04-02T14:48:06.209Z,18.83
2023-04-02T14:50:37.813Z,18.82
2023-04-02T14:53:10.836Z,18.83
2023-04-02T14:55:41.594Z,18.83
2023-04-02T14:58:12.459Z,18.83
2023-04-02T15:00:41.356Z,18.83
2023-04-02T15:03:14.098Z,18.83
2023-04-02T15:06:02.128Z,18.83
2023-04-02T15:08:36.720Z,18.83
2023-04-02T15:11:22.867Z,18.82
2023-04-02T15:14:00.155Z,18.82
2023-04-02T15:16:26.137Z,18.83
2023-04-02T15:18:54.847Z,18.83
2023-04-02T15:21:55.599Z,18.82
2023-04-02T15:24:36.554Z,18.82
2023-04-02T15:27:25.819Z,18.83
2023-04-02T15:30:01.002Z,18.83
2023-04-02T15:32:35.704Z,18.83
2023-04-02T15:38:03.873Z,18.82
2023-04-02T15:40:57.428Z,18.82
2023-04-02T15:43:28.864Z,18.83
2023-04-02T15:46:11.518Z,18.83
2023-04-02T15:49:01.457Z,18.82
2023-04-02T15:51:54.092Z,18.82
2023-04-02T15:54:45.033Z,18.82
2023-04-02T15:57:22.781Z,18.82
2023-04-02T15:59:58.376Z,18.83
2023-04-02T16:02:53.081Z,18.83
2023-04-02T16:05:41.955Z,18.83
2023-04-02T16:08:30.146Z,18.82
2023-04-02T16:10:55.705Z,18.83
2023-04-02T16:16:14.624Z,18.84
2023-04-02T16:21:29.010Z,18.83
2023-04-02T16:23:54.602Z,18.82
2023-04-02T16:26:31.080Z,18.82
2023-04-02T16:31:52.566Z,18.83
2023-04-02T16:35:01.945Z,18.82
2023-04-02T16:37:51.796Z,18.83
2023-04-02T16:41:07.773Z,18.84
2023-04-02T16:46:39.791Z,18.83
2023-04-02T16:49:22.715Z,18.83
2023-04-02T16:54:49.083Z,18.83
2023-04-02T16:57:24.838Z,18.82
2023-04-02T17:00:22.328Z,18.83
2023-04-02T17:03:14.785Z,18.82
2023-04-02T17:08:30.129Z,18.86
2023-04-02T17:11:20.664Z,18.86
2023-04-02T17:13:51.612Z,18.84
2023-04-02T17:16:27.697Z,18.84
2023-04-02T17:18:57.087Z,18.84
2023-04-02T17:21:25.524Z,18.83
2023-04-02T17:23:56.403Z,18.84
2023-04-02T17:26:26.159Z,18.82
2023-04-02T17:28:52.187Z,18.83
2023-04-02T17:31:20.857Z,18.83
2023-04-02T17:33:46.647Z,18.83
2023-04-02T17:36:24.124Z,18.84
2023-04-02T17:39:19.437Z,18.83
2023-04-02T17:41:55.409Z,18.83
2023-04-02T17:44:46.210Z,18.83
2023-04-02T17:47:21.317Z,18.83
2023-04-02T17:50:01.727Z,18.83
2023-04-02T17:52:52.454Z,18.84
2023-04-02T17:55:57.920Z,18.83
2023-04-02T18:01:48.744Z,18.83
2023-04-02T18:09:39.823Z,18.83
2023-04-02T18:12:29.106Z,18.83
2023-04-02T18:15:21.958Z,18.83
2023-04-02T18:18:07.346Z,18.83
2023-04-02T18:20:39.006Z,18.83
2023-04-02T18:23:32.815Z,18.84
2023-04-02T18:26:14.958Z,18.83
2023-04-02T18:29:06.219Z,18.82
2023-04-02T18:31:41.971Z,18.83
2023-04-02T18:34:26.072Z,18.84
2023-04-02T18:37:19.138Z,18.84
2023-04-02T18:40:09.046Z,18.84
2023-04-02T18:42:58.832Z,18.83
2023-04-02T18:45:36.360Z,18.83
2023-04-02T18:48:40.257Z,18.83
2023-04-02T18:51:22.968Z,18.84
2023-04-02T18:53:54.211Z,18.83
2023-04-02T18:56:21.491Z,18.83
2023-04-02T19:01:27.311Z,18.83
2023-04-02T19:03:57.310Z,18.83
2023-04-02T19:06:26.681Z,18.84
2023-04-02T19:08:56.751Z,18.83
2023-04-02T19:11:28.591Z,18.83
2023-04-02T19:13:59.377Z,18.84
2023-04-02T19:19:20.184Z,18.84
2023-04-02T19:22:11.404Z,18.84
2023-04-02T19:24:52.545Z,18.83
2023-04-02T19:30:31.403Z,18.84
2023-04-02T19:33:36.865Z,18.83
2023-04-02T19:36:17.546Z,18.83
2023-04-02T19:39:14.046Z,18.84
2023-04-02T19:41:47.229Z,18.84
2023-04-02T19:44:14.521Z,18.84
2023-04-02T19:46:40.509Z,18.84
2023-04-02T19:49:21.772Z,18.84
2023-04-02T19:51:48.285Z,18.84
2023-04-02T19:54:14.317Z,18.83
2023-04-02T19:56:41.539Z,18.83
2023-04-02T19:59:17.761Z,18.84
2023-04-02T20:01:44.767Z,18.84
2023-04-02T20:04:10.485Z,18.83
2023-04-02T20:06:36.968Z,18.83
2023-04-02T20:09:02.867Z,18.84
2023-04-02T20:11:28.580Z,18.84
2023-04-02T20:13:54.356Z,18.84
2023-04-02T20:16:21.194Z,18.84
2023-04-02T20:18:47.828Z,18.84
2023-04-02T20:21:13.477Z,18.83
2023-04-02T20:23:39.154Z,18.83
2023-04-02T20:26:05.331Z,18.83
2023-04-02T20:28:31.017Z,18.83
2023-04-02T20:31:14.089Z,18.84
2023-04-02T20:33:40.491Z,18.84
2023-04-02T20:36:08.474Z,18.84
2023-04-02T20:38:35.024Z,18.84
2023-04-02T20:41:01.610Z,18.85
2023-04-02T20:43:27.645Z,18.84
2023-04-02T20:45:55.581Z,18.83
2023-04-02T20:48:22.478Z,18.84
2023-04-02T20:50:48.530Z,18.84
2023-04-02T20:53:15.715Z,18.84
2023-04-02T20:55:41.402Z,18.84
2023-04-02T20:58:07.747Z,18.84
2023-04-02T21:00:33.717Z,18.83
2023-04-02T21:02:59.910Z,18.84
2023-04-02T21:05:25.679Z,18.85
2023-04-02T21:07:51.761Z,18.85
2023-04-02T21:10:17.625Z,18.84
2023-04-02T21:12:43.280Z,18.84
2023-04-02T21:15:11.169Z,18.84
2023-04-02T21:17:36.851Z,18.83
2023-04-02T21:20:03.075Z,18.84
2023-04-02T21:22:28.764Z,18.84
2023-04-02T21:24:54.575Z,18.83
2023-04-02T21:27:24.775Z,18.83
2023-04-02T21:29:51.805Z,18.83
2023-04-02T21:32:21.572Z,18.84
2023-04-02T21:34:47.788Z,18.83
2023-04-02T21:37:13.423Z,18.84
2023-04-02T21:39:39.063Z,18.83
2023-04-02T21:42:04.849Z,18.84
2023-04-02T21:44:30.488Z,18.84
2023-04-02T21:46:56.193Z,18.84
2023-04-02T21:49:22.361Z,18.84
2023-04-02T21:51:50.630Z,18.84
2023-04-02T21:54:16.805Z,18.85
2023-04-02T21:56:44.375Z,18.85
2023-04-02T21:59:11.438Z,18.85
2023-04-02T22:01:40.561Z,18.84
2023-04-02T22:04:07.730Z,18.84
2023-04-02T22:06:38.658Z,18.84
2023-04-02T22:09:08.640Z,18.84
2023-04-02T22:11:36.981Z,18.84
2023-04-02T22:14:02.968Z,18.84
2023-04-02T22:16:30.157Z,18.84
2023-04-02T22:19:00.011Z,18.84
2023-04-02T22:21:26.380Z,18.84
2023-04-02T22:23:52.103Z,18.83
2023-04-02T22:26:18.431Z,18.84
2023-04-02T22:28:44.571Z,18.84
2023-04-02T22:31:14.318Z,18.85
2023-04-02T22:33:40.665Z,18.84
2023-04-02T22:36:07.568Z,18.83
2023-04-02T22:38:34.209Z,18.83
2023-04-02T22:41:09.559Z,18.84
2023-04-02T22:43:35.962Z,18.84
2023-04-02T22:46:02.898Z,18.84
2023-04-02T22:48:28.580Z,18.83
2023-04-02T22:50:54.573Z,18.84
2023-04-02T22:53:20.562Z,18.85
2023-04-02T22:55:46.232Z,18.84
2023-04-02T22:58:11.870Z,18.84
2023-04-02T23:00:38.675Z,18.84
2023-04-02T23:03:05.376Z,18.84
2023-04-02T23:05:31.241Z,18.84
2023-04-02T23:07:56.965Z,18.83
2023-04-02T23:10:22.629Z,18.84
2023-04-02T23:12:48.277Z,18.84
2023-04-02T23:15:13.978Z,18.84
2023-04-02T23:17:39.663Z,18.84
2023-04-02T23:20:07.127Z,18.83
2023-04-02T23:22:33.022Z,18.84
2023-04-02T23:24:58.652Z,18.83
2023-04-02T23:27:24.424Z,18.84
2023-04-02T23:29:50.979Z,18.83
2023-04-02T23:32:17.278Z,18.85
2023-04-02T23:34:42.969Z,18.84
2023-04-02T23:37:08.890Z,18.84
2023-04-02T23:39:35.157Z,18.83
2023-04-02T23:42:00.852Z,18.84
2023-04-02T23:44:26.519Z,18.84
2023-04-02T23:46:52.328Z,18.85
2023-04-02T23:49:18.442Z,18.84
2023-04-02T23:51:44.101Z,18.83
2023-04-02T23:54:11.507Z,18.84
2023-04-02T23:56:37.285Z,18.84
2023-04-02T23:59:02.989Z,18.84
